createdAt,value
2022-10-17T00:00:34.351Z,78.30
2022-10-17T00:03:02.591Z,78.20
2022-10-17T00:05:32.033Z,78.20
2022-10-17T00:08:00.108Z,78.10
2022-10-17T00:10:28.159Z,78.10
2022-10-17T00:12:56.179Z,78.20
2022-10-17T00:15:24.713Z,78.20
2022-10-17T00:17:52.755Z,78.20
2022-10-17T00:20:21.055Z,78.10
2022-10-17T00:22:50.514Z,78.10
2022-10-17T00:25:19.171Z,78.20
2022-10-17T00:27:47.208Z,78.40
2022-10-17T00:30:17.299Z,78.50
2022-10-17T00:32:45.362Z,78.50
2022-10-17T00:35:13.533Z,78.60
2022-10-17T00:37:41.595Z,78.70
2022-10-17T00:40:12.333Z,78.80
2022-10-17T00:42:40.390Z,78.90
2022-10-17T00:45:16.029Z,78.90
2022-10-17T00:47:47.588Z,78.90
2022-10-17T00:50:17.003Z,78.80
2022-10-17T00:52:46.023Z,78.90
2022-10-17T00:55:18.498Z,79.60
2022-10-17T00:57:47.464Z,78.80
2022-10-17T01:00:17.088Z,78.80
2022-10-17T01:02:45.354Z,78.80
2022-10-17T01:05:14.136Z,78.80
2022-10-17T01:07:44.456Z,78.80
2022-10-17T01:10:14.073Z,78.80
2022-10-17T01:13:00.257Z,78.80
2022-10-17T01:15:41.062Z,78.80
2022-10-17T01:18:23.782Z,78.80
2022-10-17T01:21:23.230Z,78.90
2022-10-17T01:24:14.046Z,79.10
2022-10-17T01:27:06.761Z,79.10
2022-10-17T01:30:00.848Z,79.10
2022-10-17T01:32:36.278Z,79.10
2022-10-17T01:35:11.436Z,79.00
2022-10-17T01:37:45.155Z,78.90
2022-10-17T01:40:21.447Z,78.90
2022-10-17T01:42:55.600Z,78.80
2022-10-17T01:45:30.881Z,78.60
2022-10-17T02:22:12.743Z,78.80
2022-10-17T02:24:49.260Z,78.70
2022-10-17T02:27:32.146Z,78.80
2022-10-17T02:30:07.218Z,79.50
2022-10-17T02:32:40.103Z,78.90
2022-10-17T02:35:12.495Z,78.90
2022-10-17T02:37:43.431Z,79.10
2022-10-17T02:40:14.280Z,79.20
2022-10-17T02:42:45.575Z,79.10
2022-10-17T02:45:15.142Z,79.10
2022-10-17T02:47:51.814Z,79.10
2022-10-17T02:50:23.901Z,79.10
2022-10-17T02:52:59.219Z,79.10
2022-10-17T02:55:33.500Z,79.30
2022-10-17T02:58:06.923Z,79.20
2022-10-17T03:00:36.274Z,79.30
2022-10-17T03:03:20.550Z,79.40
2022-10-17T03:05:48.774Z,79.50
2022-10-17T03:08:18.323Z,79.40
2022-10-17T03:10:46.933Z,79.50
2022-10-17T03:13:15.345Z,79.60
2022-10-17T03:15:43.710Z,79.70
2022-10-17T03:18:12.226Z,79.80
2022-10-17T03:20:40.462Z,79.90
2022-10-17T03:23:08.657Z,79.90
2022-10-17T03:25:38.230Z,79.80
2022-10-17T03:28:06.716Z,79.80
2022-10-17T03:30:35.381Z,79.80
2022-10-17T03:33:03.554Z,79.80
2022-10-17T03:35:31.726Z,79.70
2022-10-17T03:37:59.882Z,79.70
2022-10-17T03:40:28.156Z,79.70
2022-10-17T03:42:57.708Z,79.70
2022-10-17T03:45:25.914Z,79.70
2022-10-17T03:47:54.113Z,79.70
2022-10-17T03:50:22.308Z,79.70
2022-10-17T03:52:50.931Z,79.70
2022-10-17T03:55:19.600Z,79.90
2022-10-17T03:57:47.773Z,79.80
2022-10-17T04:00:17.691Z,79.70
2022-10-17T04:02:46.291Z,79.70
2022-10-17T04:05:14.630Z,79.60
2022-10-17T04:07:42.833Z,79.70
2022-10-17T04:10:11.665Z,79.80
2022-10-17T04:12:39.871Z,80.10
2022-10-17T04:15:09.238Z,80.30
2022-10-17T04:17:38.817Z,80.30
2022-10-17T04:20:07.931Z,80.40
2022-10-17T04:22:36.121Z,80.30
2022-10-17T04:25:04.470Z,80.30
2022-10-17T04:27:32.642Z,80.00
2022-10-17T04:30:00.868Z,79.60
2022-10-17T04:32:29.325Z,79.30
2022-10-17T04:34:59.098Z,79.10
2022-10-17T04:37:27.254Z,78.90
2022-10-17T04:39:55.407Z,78.90
2022-10-17T04:42:23.578Z,78.90
2022-10-17T04:44:51.762Z,78.70
2022-10-17T04:47:19.974Z,78.80
2022-10-17T04:49:48.150Z,78.90
2022-10-17T04:52:17.736Z,78.90
2022-10-17T04:54:45.967Z,78.90
2022-10-17T04:57:14.143Z,79.10
2022-10-17T04:59:42.315Z,79.30
2022-10-17T05:02:10.508Z,79.20
2022-10-17T05:04:38.691Z,79.40
2022-10-17T05:07:06.856Z,79.50
2022-10-17T05:09:36.430Z,79.60
2022-10-17T05:12:06.756Z,79.60
2022-10-17T05:14:37.737Z,79.90
2022-10-17T05:17:05.913Z,79.90
2022-10-17T05:19:34.086Z,79.90
2022-10-17T05:22:02.278Z,79.70
2022-10-17T05:24:30.513Z,79.80
2022-10-17T05:27:00.089Z,79.80
2022-10-17T05:29:28.330Z,79.80
2022-10-17T05:31:56.521Z,79.90
2022-10-17T05:34:25.146Z,80.00
2022-10-17T05:36:53.382Z,80.00
2022-10-17T05:39:21.757Z,80.00
2022-10-17T05:41:51.293Z,80.10
2022-10-17T05:44:20.890Z,80.00
2022-10-17T05:46:50.526Z,80.00
2022-10-17T05:49:32.546Z,79.90
2022-10-17T05:52:07.890Z,79.90
2022-10-17T05:54:36.202Z,79.80
2022-10-17T05:57:04.478Z,79.70
2022-10-17T05:59:34.027Z,79.60
2022-10-17T06:02:02.472Z,79.50
2022-10-17T06:04:30.719Z,79.40
2022-10-17T06:06:58.970Z,79.40
2022-10-17T06:09:27.254Z,79.40
2022-10-17T06:11:55.433Z,79.30
2022-10-17T06:14:23.755Z,79.30
2022-10-17T06:16:53.291Z,79.20
2022-10-17T06:19:21.512Z,79.20
2022-10-17T06:21:49.715Z,79.20
2022-10-17T06:24:18.098Z,79.30
2022-10-17T06:26:47.628Z,79.40
2022-10-17T06:29:16.038Z,79.50
2022-10-17T06:31:44.354Z,79.70
2022-10-17T06:34:14.022Z,79.80
2022-10-17T06:36:42.216Z,79.90
2022-10-17T06:39:10.423Z,80.10
2022-10-17T06:41:39.698Z,80.20
2022-10-17T06:44:11.091Z,80.20
2022-10-17T06:46:39.352Z,80.20
2022-10-17T06:49:08.267Z,80.30
2022-10-17T06:51:38.687Z,80.20
2022-10-17T07:57:22.704Z,79.40
2022-10-17T07:59:51.380Z,79.20
2022-10-17T08:02:23.618Z,79.10
2022-10-17T08:04:51.814Z,78.90
2022-10-17T08:07:24.114Z,78.90
2022-10-17T08:09:53.691Z,78.70
2022-10-17T08:12:24.308Z,78.60
2022-10-17T08:14:52.485Z,78.50
2022-10-17T08:17:20.663Z,78.40
2022-10-17T08:19:48.825Z,78.00
2022-10-17T08:22:16.977Z,77.90
2022-10-17T08:24:46.269Z,77.90
2022-10-17T08:27:14.666Z,77.70
2022-10-17T08:29:48.412Z,77.80
2022-10-17T08:32:16.594Z,77.40
2022-10-17T08:34:44.782Z,77.20
2022-10-17T08:37:13.552Z,77.10
2022-10-17T08:39:42.457Z,76.90
2022-10-17T08:42:36.093Z,76.70
2022-10-17T08:45:17.866Z,76.40
2022-10-17T08:47:48.507Z,76.20
2022-10-17T08:50:34.416Z,76.10
2022-10-17T08:53:07.417Z,76.00
2022-10-17T08:55:41.475Z,75.90
2022-10-17T08:58:15.832Z,76.00
2022-10-17T09:00:51.493Z,75.70
2022-10-17T09:03:33.910Z,75.60
2022-10-17T09:06:12.486Z,75.60
2022-10-17T09:08:49.386Z,75.70
2022-10-17T09:11:30.906Z,75.10
2022-10-17T09:14:09.564Z,75.20
2022-10-17T09:17:00.929Z,75.40
2022-10-17T09:19:33.929Z,75.30
2022-10-17T09:22:07.617Z,75.30
2022-10-17T09:24:43.319Z,75.30
2022-10-17T09:27:23.261Z,75.20
2022-10-17T09:29:55.721Z,74.90
2022-10-17T09:32:27.287Z,75.10
2022-10-17T09:34:55.633Z,75.10
2022-10-17T09:37:32.506Z,75.50
2022-10-17T09:40:00.869Z,74.70
2022-10-17T09:42:29.921Z,74.70
2022-10-17T09:45:06.166Z,74.00
2022-10-17T09:47:42.321Z,73.60
2022-10-17T09:50:25.800Z,73.20
2022-10-17T09:52:55.398Z,72.80
2022-10-17T09:55:32.715Z,72.50
2022-10-17T09:58:02.441Z,72.10
2022-10-17T10:00:32.142Z,71.90
2022-10-17T10:03:23.588Z,71.60
2022-10-17T10:06:03.321Z,71.00
2022-10-17T10:08:33.912Z,70.40
2022-10-17T10:11:04.754Z,70.50
2022-10-17T10:13:34.211Z,70.80
2022-10-17T10:16:18.883Z,70.00
2022-10-17T10:18:50.937Z,69.50
2022-10-17T10:21:21.257Z,69.50
2022-10-17T10:24:07.002Z,69.40
2022-10-17T10:26:39.920Z,69.20
2022-10-17T10:29:21.104Z,69.00
2022-10-17T10:31:50.701Z,69.00
2022-10-17T10:34:25.608Z,69.10
2022-10-17T10:37:04.767Z,68.30
2022-10-17T10:39:42.384Z,68.40
2022-10-17T10:42:23.192Z,68.30
2022-10-17T10:44:52.721Z,68.10
2022-10-17T10:47:24.006Z,68.40
2022-10-17T10:50:07.379Z,68.20
2022-10-17T10:52:43.670Z,67.80
2022-10-17T10:55:27.315Z,67.50
2022-10-17T10:58:01.595Z,67.20
2022-10-17T11:00:32.364Z,67.50
2022-10-17T11:03:12.650Z,67.40
2022-10-17T11:05:47.423Z,67.40
2022-10-17T11:08:25.621Z,67.40
2022-10-17T11:11:05.762Z,67.00
2022-10-17T11:13:40.774Z,67.10
2022-10-17T11:16:24.502Z,67.00
2022-10-17T11:18:56.643Z,66.70
2022-10-17T11:21:36.535Z,66.90
2022-10-17T11:24:12.012Z,66.70
2022-10-17T11:26:44.240Z,66.40
2022-10-17T11:29:14.173Z,66.50
2022-10-17T11:31:48.861Z,66.30
2022-10-17T11:34:20.638Z,66.40
2022-10-17T11:36:54.295Z,66.40
2022-10-17T11:39:30.310Z,66.30
2022-10-17T11:42:04.283Z,66.10
2022-10-17T11:44:36.786Z,65.90
2022-10-17T11:47:12.598Z,65.80
2022-10-17T11:49:48.492Z,66.00
2022-10-17T11:52:54.840Z,65.80
2022-10-17T11:55:23.539Z,65.50
2022-10-17T11:58:08.617Z,65.50
2022-10-17T12:00:52.023Z,65.00
2022-10-17T12:03:31.709Z,65.30
2022-10-17T12:06:05.633Z,65.30
2022-10-17T12:08:40.686Z,65.50
2022-10-17T12:11:16.202Z,65.10
2022-10-17T12:13:53.495Z,64.90
2022-10-17T12:16:51.985Z,64.70
2022-10-17T12:19:34.946Z,65.00
2022-10-17T12:22:18.922Z,64.80
2022-10-17T12:24:57.534Z,65.00
2022-10-17T12:27:37.513Z,65.00
2022-10-17T12:30:16.252Z,64.40
2022-10-17T12:33:07.947Z,64.90
2022-10-17T12:35:38.502Z,64.60
2022-10-17T12:38:21.967Z,64.80
2022-10-17T12:41:02.085Z,64.80
2022-10-17T12:43:57.567Z,65.10
2022-10-17T12:46:59.546Z,65.30
2022-10-17T12:49:49.146Z,65.30
2022-10-17T12:52:43.370Z,65.10
2022-10-17T12:55:16.603Z,65.10
2022-10-17T12:57:52.700Z,65.40
2022-10-17T13:00:25.143Z,65.70
2022-10-17T13:02:56.011Z,65.10
2022-10-17T13:05:30.543Z,64.80
2022-10-17T13:08:02.410Z,64.70
2022-10-17T13:10:33.208Z,64.70
2022-10-17T13:13:07.810Z,64.60
2022-10-17T13:15:39.151Z,64.50
2022-10-17T13:18:10.151Z,64.90
2022-10-17T13:20:38.354Z,65.00
2022-10-17T13:23:12.540Z,65.00
2022-10-17T13:40:50.624Z,65.10
2022-10-17T13:43:21.854Z,65.20
2022-10-17T13:45:52.499Z,65.30
2022-10-17T13:48:23.360Z,65.40
2022-10-17T13:50:55.165Z,65.50
2022-10-17T13:53:30.533Z,65.60
2022-10-17T13:56:26.778Z,65.60
2022-10-17T13:58:52.254Z,65.60
2022-10-17T14:01:22.442Z,65.60
2022-10-17T14:04:02.188Z,65.60
2022-10-17T14:06:38.234Z,65.60
2022-10-17T14:09:08.818Z,65.70
2022-10-17T14:11:40.685Z,66.50
2022-10-17T14:14:18.729Z,65.80
2022-10-17T14:16:47.279Z,65.90
2022-10-17T14:19:26.558Z,65.90
2022-10-17T14:21:57.092Z,65.90
2022-10-17T14:24:31.515Z,66.00
2022-10-17T14:27:01.683Z,65.80
2022-10-17T14:29:31.922Z,65.80
2022-10-17T14:32:03.320Z,65.90
2022-10-17T14:34:34.665Z,65.70
2022-10-17T14:37:04.042Z,65.70
2022-10-17T14:39:32.215Z,65.70
2022-10-17T14:42:04.404Z,65.80
2022-10-17T14:44:36.311Z,65.60
2022-10-17T14:47:30.847Z,65.80
2022-10-17T14:50:05.909Z,65.90
2022-10-17T14:52:34.949Z,65.90
2022-10-17T14:55:22.084Z,66.00
2022-10-17T14:57:51.737Z,65.90
2022-10-17T15:00:21.908Z,66.10
2022-10-17T15:02:51.238Z,66.20
2022-10-17T15:05:20.501Z,66.30
2022-10-17T15:10:42.863Z,66.50
2022-10-17T15:13:27.577Z,66.70
2022-10-17T15:15:57.168Z,66.70
2022-10-17T15:18:25.325Z,66.80
2022-10-17T15:21:04.539Z,67.00
2022-10-17T15:23:34.854Z,66.60
2022-10-17T15:26:03.167Z,66.50
2022-10-17T15:28:32.810Z,66.60
2022-10-17T15:31:01.057Z,66.70
2022-10-17T15:33:29.231Z,66.80
2022-10-17T15:38:26.553Z,66.90
2022-10-17T15:40:54.900Z,66.90
2022-10-17T15:43:23.083Z,67.50
2022-10-17T15:45:52.667Z,66.80
2022-10-17T15:48:27.830Z,67.50
2022-10-17T15:50:56.014Z,66.80
2022-10-17T15:53:24.426Z,66.80
2022-10-17T15:55:52.637Z,66.90
2022-10-17T15:58:21.271Z,66.90
2022-10-17T16:00:49.917Z,67.00
2022-10-17T16:03:19.564Z,67.00
2022-10-17T16:05:47.906Z,67.00
2022-10-17T16:08:16.254Z,67.10
2022-10-17T16:10:44.468Z,67.10
2022-10-17T16:13:18.876Z,67.10
2022-10-17T16:15:47.155Z,67.10
2022-10-17T16:18:15.612Z,67.20
2022-10-17T16:20:45.186Z,67.30
2022-10-17T16:23:15.437Z,67.30
2022-10-17T16:25:43.889Z,67.40
2022-10-17T16:28:12.160Z,67.40
2022-10-17T16:30:46.045Z,67.30
2022-10-17T16:33:14.346Z,67.40
2022-10-17T16:35:42.610Z,67.40
2022-10-17T16:38:12.214Z,67.50
2022-10-17T16:40:40.815Z,67.60
2022-10-17T16:43:09.213Z,67.70
2022-10-17T16:45:37.703Z,67.90
2022-10-17T16:48:06.338Z,68.10
2022-10-17T16:50:35.766Z,68.20
2022-10-17T16:53:04.259Z,68.40
2022-10-17T16:55:33.805Z,68.60
2022-10-17T16:58:02.025Z,68.70
2022-10-17T17:00:30.344Z,68.80
2022-10-17T17:02:58.582Z,68.90
2022-10-17T17:05:26.765Z,69.00
2022-10-17T17:07:55.937Z,69.10
2022-10-17T17:10:24.102Z,69.20
2022-10-17T17:12:53.647Z,69.20
2022-10-17T17:15:21.807Z,69.30
2022-10-17T17:17:53.484Z,69.40
2022-10-17T17:20:23.349Z,69.50
2022-10-17T17:22:52.426Z,69.60
2022-10-17T17:25:20.721Z,69.50
2022-10-17T17:27:49.075Z,69.40
2022-10-17T17:30:18.921Z,69.50
2022-10-17T17:32:47.082Z,69.40
2022-10-17T17:35:15.259Z,69.50
2022-10-17T17:37:43.434Z,69.50
2022-10-17T17:40:12.534Z,69.60
2022-10-17T17:42:40.759Z,69.60
2022-10-17T17:45:10.059Z,69.50
2022-10-17T17:47:39.633Z,69.60
2022-10-17T17:50:08.661Z,69.60
2022-10-17T17:52:36.827Z,69.70
2022-10-17T17:55:05.378Z,69.80
2022-10-17T17:57:33.530Z,69.90
2022-10-17T18:00:01.689Z,70.00
2022-10-17T18:02:30.008Z,70.00
2022-10-17T18:04:59.745Z,70.10
2022-10-17T18:07:27.932Z,70.20
2022-10-17T18:09:57.041Z,70.30
2022-10-17T18:12:33.433Z,70.40
2022-10-17T18:15:01.881Z,70.60
2022-10-17T18:17:39.792Z,70.70
2022-10-17T18:20:10.232Z,70.80
2022-10-17T18:22:39.625Z,71.00
2022-10-17T18:25:08.370Z,71.10
2022-10-17T18:27:36.565Z,71.10
2022-10-17T18:30:05.203Z,71.20
2022-10-17T18:32:33.819Z,71.20
2022-10-17T18:35:04.345Z,71.30
2022-10-17T18:37:34.015Z,71.40
2022-10-17T18:40:03.194Z,71.40
2022-10-17T18:42:31.578Z,71.30
2022-10-17T18:45:05.764Z,71.30
2022-10-17T18:47:34.970Z,71.30
2022-10-17T18:50:03.198Z,71.30
2022-10-17T18:52:31.390Z,71.30
2022-10-17T18:55:00.971Z,71.30
2022-10-17T18:57:29.398Z,71.40
2022-10-17T18:59:57.868Z,71.30
2022-10-17T19:02:26.048Z,71.30
2022-10-17T19:04:54.219Z,71.30
2022-10-17T19:07:22.390Z,71.30
2022-10-17T19:09:53.646Z,71.30
2022-10-17T19:12:23.214Z,71.40
2022-10-17T19:14:56.189Z,71.60
2022-10-17T19:17:26.237Z,71.80
2022-10-17T19:19:55.178Z,71.80
2022-10-17T19:22:23.339Z,72.00
2022-10-17T19:24:53.823Z,72.10
2022-10-17T19:27:24.974Z,72.30
2022-10-17T19:29:55.060Z,72.40
2022-10-17T19:32:26.219Z,72.50
2022-10-17T19:34:54.688Z,72.60
2022-10-17T19:37:25.309Z,72.60
2022-10-17T19:39:54.532Z,72.60
2022-10-17T19:42:24.086Z,72.60
2022-10-17T19:44:52.272Z,72.60
2022-10-17T19:47:20.442Z,72.60
2022-10-17T19:49:50.935Z,72.70
2022-10-17T19:52:19.181Z,72.80
2022-10-17T19:54:47.339Z,72.90
2022-10-17T19:57:17.723Z,72.90
2022-10-17T19:59:48.559Z,72.90
2022-10-17T20:02:18.421Z,72.90
2022-10-17T20:05:18.680Z,72.90
2022-10-17T20:07:47.061Z,73.20
2022-10-17T20:10:16.909Z,73.10
2022-10-17T20:12:44.945Z,73.30
2022-10-17T20:15:14.424Z,73.70
2022-10-17T20:17:42.580Z,73.90
2022-10-17T20:20:11.245Z,74.00
2022-10-17T20:22:39.291Z,74.20
2022-10-17T20:25:08.030Z,74.10
2022-10-17T20:27:36.119Z,74.00
2022-10-17T20:30:04.667Z,74.00
2022-10-17T20:32:39.438Z,74.00
2022-10-17T20:35:09.382Z,74.90
2022-10-17T20:37:41.559Z,74.10
2022-10-17T20:40:33.444Z,74.10
2022-10-17T20:42:59.999Z,74.00
2022-10-17T20:45:43.621Z,74.00
2022-10-17T20:48:17.759Z,74.10
2022-10-17T20:50:46.040Z,74.10
2022-10-17T20:56:03.858Z,74.00
2022-10-17T20:58:32.030Z,74.00
2022-10-17T21:01:00.114Z,73.90
2022-10-17T21:03:29.545Z,73.90
2022-10-17T21:05:57.541Z,74.00
2022-10-17T21:08:25.607Z,74.00
2022-10-17T21:10:53.648Z,74.10
2022-10-17T21:13:21.714Z,73.90
2022-10-17T21:15:49.752Z,74.00
2022-10-17T21:18:17.769Z,74.00
2022-10-17T21:20:47.213Z,74.00
2022-10-17T21:23:15.252Z,74.20
2022-10-17T21:25:43.877Z,74.20
2022-10-17T21:28:11.896Z,74.30
2022-10-17T21:30:39.915Z,74.50
2022-10-17T21:33:08.069Z,74.50
2022-10-17T21:35:36.175Z,74.40
2022-10-17T21:38:05.976Z,75.10
2022-10-17T21:40:34.123Z,74.30
2022-10-17T21:43:02.147Z,74.40
2022-10-17T21:45:30.191Z,74.30
2022-10-17T21:48:13.748Z,74.30
2022-10-17T21:50:42.211Z,74.30
2022-10-17T21:53:11.658Z,74.30
2022-10-17T21:55:39.812Z,74.30
2022-10-17T21:58:07.880Z,74.30
2022-10-17T22:00:35.919Z,74.30
2022-10-17T22:03:04.095Z,74.30
2022-10-17T22:05:32.666Z,74.30
2022-10-17T22:08:00.758Z,74.20
2022-10-17T22:10:30.158Z,74.30
2022-10-17T22:12:58.192Z,74.30
2022-10-17T22:15:26.246Z,76.00
2022-10-17T22:17:54.301Z,76.30
2022-10-17T22:20:22.326Z,75.10
2022-10-17T22:22:50.417Z,74.40
2022-10-17T22:25:18.591Z,73.80
2022-10-17T22:27:48.348Z,73.40
2022-10-17T22:30:16.497Z,73.20
2022-10-17T22:32:44.753Z,73.20
2022-10-17T22:35:12.853Z,73.40
2022-10-17T22:37:40.903Z,73.40
2022-10-17T22:40:09.635Z,73.40
2022-10-17T22:42:37.671Z,73.50
2022-10-17T22:45:07.886Z,73.60
2022-10-17T22:47:35.920Z,73.70
2022-10-17T22:50:04.077Z,73.80
2022-10-17T22:52:32.407Z,73.80
2022-10-17T22:55:00.667Z,73.90
2022-10-17T22:57:28.708Z,73.90
2022-10-17T22:59:56.741Z,74.00
2022-10-17T23:02:26.335Z,74.00
2022-10-17T23:04:54.368Z,74.30
2022-10-17T23:07:22.402Z,74.30
2022-10-17T23:09:50.451Z,74.30
2022-10-17T23:12:18.866Z,74.40
2022-10-17T23:14:46.901Z,74.40
2022-10-17T23:17:15.685Z,74.40
2022-10-17T23:19:45.193Z,74.50
2022-10-17T23:22:13.318Z,74.50
2022-10-17T23:24:41.372Z,74.40
2022-10-17T23:27:09.402Z,74.40
2022-10-17T23:29:37.443Z,74.30
2022-10-17T23:32:05.770Z,74.30
2022-10-17T23:34:33.851Z,74.50
2022-10-17T23:37:03.455Z,74.50
2022-10-17T23:39:31.511Z,74.60
2022-10-17T23:41:59.517Z,74.70
2022-10-17T23:44:27.583Z,74.80
2022-10-17T23:46:55.628Z,74.90
2022-10-17T23:49:23.643Z,75.00
2022-10-17T23:51:51.696Z,74.90
2022-10-17T23:54:21.164Z,75.10
2022-10-17T23:56:49.343Z,75.20
2022-10-17T23:59:17.579Z,75.20
